Time;durP1;ratioP1;P1;durP2;ratioP2;P2;SDS_P1;SDS_P2;PMS_P1;PMS_P2;Temp;Humidity;BMP_temperature;BMP_pressure;BME280_temperature;BME280_humidity;BME280_pressure;Samples;Min_cycle;Max_cycle;Signal;HPM_P1;HPM_P2
2023/09/23 00:02:10;;;;;;;0.10;0.10;;;;;;;;;;5127757;28;20043;-58
2023/09/23 00:04:36;;;;;;;0.10;0.10;;;;;;;;;;5128219;28;20059;-58
2023/09/23 00:07:02;;;;;;;0.10;0.10;;;;;;;;;;5128760;28;20139;-58
2023/09/23 00:09:28;;;;;;;0.10;0.10;;;;;;;;;;5128176;28;20260;-58
2023/09/23 00:11:54;;;;;;;0.10;0.10;;;;;;;;;;5128322;28;20047;-58
2023/09/23 00:14:20;;;;;;;0.10;0.10;;;;;;;;;;5128961;28;20051;-58
2023/09/23 00:16:47;;;;;;;0.10;0.10;;;;;;;;;;5129338;27;20061;-58
2023/09/23 00:19:13;;;;;;;0.10;0.10;;;;;;;;;;5130707;27;20050;-58
2023/09/23 00:21:38;;;;;;;0.10;0.10;;;;;;;;;;5148891;27;20099;-58
2023/09/23 00:24:05;;;;;;;0.10;0.10;;;;;;;;;;5135568;27;20049;-58
2023/09/23 00:26:32;;;;;;;0.10;0.10;;;;;;;;;;5129289;28;20043;-58
2023/09/23 00:28:58;;;;;;;0.17;0.17;;;;;;;;;;5114124;28;20071;-57
2023/09/23 00:31:24;;;;;;;0.10;0.10;;;;;;;;;;5107448;28;20044;-58
2023/09/23 00:33:50;;;;;;;0.10;0.10;;;;;;;;;;5118495;28;20043;-58
2023/09/23 00:36:15;;;;;;;0.10;0.10;;;;;;;;;;5128438;28;20059;-58
2023/09/23 00:38:41;;;;;;;0.10;0.10;;;;;;;;;;5127259;28;20452;-58
2023/09/23 00:41:08;;;;;;;0.10;0.10;;;;;;;;;;5127489;28;20055;-58
2023/09/23 00:43:34;;;;;;;0.10;0.10;;;;;;;;;;5127447;28;20050;-58
2023/09/23 00:46:00;;;;;;;0.10;0.10;;;;;;;;;;5127733;28;20058;-58
2023/09/23 00:48:26;;;;;;;0.10;0.10;;;;;;;;;;5127623;28;20047;-58
2023/09/23 00:50:52;;;;;;;0.10;0.10;;;;;;;;;;5127287;28;20107;-58
2023/09/23 00:53:20;;;;;;;0.10;0.10;;;;;;;;;;5126482;27;20091;-58
2023/09/23 00:55:47;;;;;;;0.10;0.10;;;;;;;;;;5128149;28;20531;-58
2023/09/23 00:58:14;;;;;;;0.10;0.10;;;;;;;;;;5126996;28;20582;-58
2023/09/23 01:00:43;;;;;;;0.10;0.10;;;;;;;;;;5127018;28;20043;-58
2023/09/23 01:03:09;;;;;;;0.10;0.10;;;;;;;;;;5126572;28;20135;-58
2023/09/23 01:05:35;;;;;;;0.10;0.10;;;;;;;;;;5127485;28;20066;-58
2023/09/23 01:08:03;;;;;;;0.10;0.10;;;;;;;;;;5127107;28;20051;-58
2023/09/23 01:10:28;;;;;;;0.10;0.10;;;;;;;;;;5126977;28;20527;-58
2023/09/23 01:12:54;;;;;;;0.10;0.10;;;;;;;;;;5126555;28;20043;-58
2023/09/23 01:15:20;;;;;;;0.10;0.10;;;;;;;;;;5126728;28;20497;-58
2023/09/23 01:17:52;;;;;;;0.10;0.10;;;;;;;;;;5129918;27;20447;-58
2023/09/23 01:20:18;;;;;;;0.10;0.10;;;;;;;;;;5106216;28;20128;-58
2023/09/23 01:22:45;;;;;;;0.10;0.10;;;;;;;;;;5105392;28;20495;-57
2023/09/23 01:25:10;;;;;;;0.10;0.10;;;;;;;;;;5126936;28;20047;-57
2023/09/23 01:27:36;;;;;;;0.10;0.10;;;;;;;;;;5124987;28;20479;-58
2023/09/23 01:30:04;;;;;;;0.10;0.10;;;;;;;;;;5105864;28;20108;-58
2023/09/23 01:32:35;;;;;;;0.10;0.10;;;;;;;;;;5106799;28;20055;-58
2023/09/23 01:35:04;;;;;;;0.10;0.10;;;;;;;;;;5125092;28;20047;-58
2023/09/23 01:37:30;;;;;;;0.10;0.10;;;;;;;;;;5126776;28;20149;-58
2023/09/23 01:39:56;;;;;;;0.10;0.10;;;;;;;;;;5125077;28;20482;-58
2023/09/23 01:42:21;;;;;;;0.10;0.10;;;;;;;;;;5126729;28;20281;-58
2023/09/23 01:44:48;;;;;;;0.10;0.10;;;;;;;;;;5127249;28;20448;-58
2023/09/23 01:47:16;;;;;;;0.10;0.10;;;;;;;;;;5126955;28;20047;-58
2023/09/23 01:49:42;;;;;;;0.03;0.03;;;;;;;;;;5126994;28;20043;-58
2023/09/23 01:52:08;;;;;;;0.10;0.10;;;;;;;;;;5127467;28;20043;-58
2023/09/23 01:54:34;;;;;;;0.10;0.10;;;;;;;;;;5126352;28;20062;-58
2023/09/23 01:57:02;;;;;;;0.10;0.10;;;;;;;;;;5128280;28;20401;-58
2023/09/23 01:59:28;;;;;;;;;;;;;;;;;;5126729;28;20475;-58
2023/09/23 02:01:53;;;;;;;0.10;0.10;;;;;;;;;;5126983;28;20391;-58
2023/09/23 02:04:19;;;;;;;0.10;0.10;;;;;;;;;;5126596;27;20457;-58
2023/09/23 02:06:44;;;;;;;0.10;0.10;;;;;;;;;;5126806;28;20043;-58
2023/09/23 02:09:10;;;;;;;0.10;0.10;;;;;;;;;;5126376;28;20130;-58
2023/09/23 02:11:37;;;;;;;0.10;0.10;;;;;;;;;;5126151;28;20063;-58
2023/09/23 02:14:04;;;;;;;0.10;0.10;;;;;;;;;;5126163;28;20051;-58
2023/09/23 02:16:29;;;;;;;0.10;0.10;;;;;;;;;;5115401;27;20093;-58
2023/09/23 02:18:55;;;;;;;0.10;0.10;;;;;;;;;;5126583;28;20047;-58
2023/09/23 02:21:20;;;;;;;0.10;0.10;;;;;;;;;;5126274;28;20051;-57
2023/09/23 02:23:46;;;;;;;0.10;0.10;;;;;;;;;;5125121;28;20757;-58
2023/09/23 02:26:12;;;;;;;0.10;0.10;;;;;;;;;;5127100;28;20504;-54
2023/09/23 02:28:38;;;;;;;0.10;0.10;;;;;;;;;;5114517;28;20320;-55
2023/09/23 02:31:05;;;;;;;0.10;0.10;;;;;;;;;;5086915;28;20094;-55
2023/09/23 02:33:30;;;;;;;0.10;0.10;;;;;;;;;;5108849;28;20051;-54
2023/09/23 02:35:58;;;;;;;0.10;0.10;;;;;;;;;;5107528;28;20765;-54
2023/09/23 02:38:24;;;;;;;0.10;0.10;;;;;;;;;;5117835;28;20499;-54
2023/09/23 02:40:50;;;;;;;0.10;0.10;;;;;;;;;;5116373;28;20099;-54
2023/09/23 02:43:19;;;;;;;0.10;0.10;;;;;;;;;;5125295;28;20100;-54
2023/09/23 02:45:47;;;;;;;0.10;0.10;;;;;;;;;;5126167;28;20069;-54
2023/09/23 02:48:13;;;;;;;0.10;0.10;;;;;;;;;;5125931;28;20078;-54
2023/09/23 02:50:40;;;;;;;0.10;0.10;;;;;;;;;;5125213;27;20133;-53
2023/09/23 02:53:06;;;;;;;0.10;0.10;;;;;;;;;;5126024;27;20474;-54
2023/09/23 02:55:32;;;;;;;0.15;0.15;;;;;;;;;;5125906;27;20075;-54
2023/09/23 02:57:58;;;;;;;0.10;0.10;;;;;;;;;;5121173;28;20159;-54
2023/09/23 03:00:29;;;;;;;0.10;0.10;;;;;;;;;;5105709;28;20051;-54
2023/09/23 03:02:55;;;;;;;0.20;0.20;;;;;;;;;;5104800;28;20047;-54
2023/09/23 03:05:26;;;;;;;0.20;0.20;;;;;;;;;;5123509;28;20415;-54
2023/09/23 03:07:57;;;;;;;0.10;0.10;;;;;;;;;;5125920;28;20071;-54
2023/09/23 03:10:31;;;;;;;0.10;0.10;;;;;;;;;;5125711;28;20047;-54
2023/09/23 03:13:05;;;;;;;0.10;0.10;;;;;;;;;;5126618;28;20075;-54
2023/09/23 03:15:44;;;;;;;0.10;0.10;;;;;;;;;;5134091;27;20088;-54
2023/09/23 03:18:10;;;;;;;0.10;0.10;;;;;;;;;;5134136;27;20047;-54
2023/09/23 03:20:40;;;;;;;0.10;0.10;;;;;;;;;;5129204;28;20039;-54
2023/09/23 03:23:09;;;;;;;0.10;0.10;;;;;;;;;;5128422;28;20043;-54
2023/09/23 03:25:41;;;;;;;0.10;0.10;;;;;;;;;;5129448;28;20147;-54
2023/09/23 03:28:07;;;;;;;0.10;0.10;;;;;;;;;;5128845;28;20130;-54
2023/09/23 03:30:35;;;;;;;0.10;0.10;;;;;;;;;;5128599;28;20055;-54
2023/09/23 03:33:02;;;;;;;0.10;0.10;;;;;;;;;;5129450;28;20126;-54
2023/09/23 03:35:28;;;;;;;0.10;0.10;;;;;;;;;;5128471;28;20047;-54
2023/09/23 03:37:53;;;;;;;0.10;0.10;;;;;;;;;;5128873;28;20402;-53
2023/09/23 03:40:24;;;;;;;0.10;0.10;;;;;;;;;;5129343;28;20051;-54
2023/09/23 03:42:50;;;;;;;0.10;0.10;;;;;;;;;;5127948;28;20074;-54
2023/09/23 03:45:17;;;;;;;0.10;0.10;;;;;;;;;;5128867;28;20418;-54
2023/09/23 03:47:45;;;;;;;0.10;0.10;;;;;;;;;;5129111;28;20091;-54
2023/09/23 03:50:11;;;;;;;0.10;0.10;;;;;;;;;;5128589;28;20043;-54
2023/09/23 03:52:36;;;;;;;0.10;0.10;;;;;;;;;;5128654;27;20515;-54
2023/09/23 03:55:03;;;;;;;0.10;0.10;;;;;;;;;;5129127;27;20055;-54
2023/09/23 03:57:29;;;;;;;0.10;0.10;;;;;;;;;;5129169;28;20092;-54
2023/09/23 03:59:54;;;;;;;0.13;0.13;;;;;;;;;;5108767;28;20043;-54
2023/09/23 04:02:21;;;;;;;0.10;0.10;;;;;;;;;;5108287;28;20051;-54
2023/09/23 04:04:48;;;;;;;0.10;0.10;;;;;;;;;;5120083;28;20450;-54
2023/09/23 04:07:16;;;;;;;0.10;0.10;;;;;;;;;;5129694;28;20047;-54
2023/09/23 04:09:41;;;;;;;0.10;0.10;;;;;;;;;;5109114;28;20096;-54
2023/09/23 04:12:08;;;;;;;0.10;0.10;;;;;;;;;;5108099;28;20044;-54
2023/09/23 04:14:34;;;;;;;0.10;0.10;;;;;;;;;;5118303;27;20039;-54
2023/09/23 04:16:59;;;;;;;0.10;0.10;;;;;;;;;;5144686;27;20134;-54
2023/09/23 04:19:26;;;;;;;0.10;0.10;;;;;;;;;;5128930;28;20043;-54
2023/09/23 04:21:52;;;;;;;0.10;0.10;;;;;;;;;;5128232;28;20135;-54
2023/09/23 04:24:17;;;;;;;0.10;0.10;;;;;;;;;;5127647;28;20043;-54
2023/09/23 04:26:43;;;;;;;0.10;0.10;;;;;;;;;;5129029;28;20427;-54
2023/09/23 04:29:08;;;;;;;0.10;0.10;;;;;;;;;;5112734;27;20430;-54
2023/09/23 04:31:34;;;;;;;0.10;0.10;;;;;;;;;;5107490;28;20040;-54
2023/09/23 04:34:00;;;;;;;0.10;0.10;;;;;;;;;;5111364;28;20058;-54
2023/09/23 04:36:25;;;;;;;0.10;0.10;;;;;;;;;;5128412;28;20138;-54
2023/09/23 04:38:51;;;;;;;0.20;0.20;;;;;;;;;;5116014;28;20090;-54
2023/09/23 04:41:16;;;;;;;0.10;0.10;;;;;;;;;;5106396;28;20408;-54
2023/09/23 04:43:42;;;;;;;0.10;0.10;;;;;;;;;;5111872;28;20047;-54
2023/09/23 04:46:09;;;;;;;0.10;0.10;;;;;;;;;;5128368;28;20105;-54
2023/09/23 04:48:35;;;;;;;0.10;0.10;;;;;;;;;;5128275;28;20074;-54
2023/09/23 04:51:00;;;;;;;0.10;0.10;;;;;;;;;;5127639;28;20074;-54
2023/09/23 04:53:28;;;;;;;0.10;0.10;;;;;;;;;;5127110;28;20046;-54
2023/09/23 04:55:54;;;;;;;0.10;0.10;;;;;;;;;;5127674;27;20043;-54
2023/09/23 04:58:20;;;;;;;0.10;0.10;;;;;;;;;;5119628;28;20048;-54
2023/09/23 05:00:45;;;;;;;0.10;0.10;;;;;;;;;;5107507;28;20104;-54
2023/09/23 05:03:11;;;;;;;0.15;0.15;;;;;;;;;;5106215;28;20059;-54
2023/09/23 05:05:36;;;;;;;0.10;0.10;;;;;;;;;;5123189;28;20566;-54
2023/09/23 05:08:09;;;;;;;0.10;0.10;;;;;;;;;;5121822;28;20052;-54
2023/09/23 05:10:35;;;;;;;0.10;0.10;;;;;;;;;;5106837;28;20051;-54
2023/09/23 05:13:01;;;;;;;0.10;0.10;;;;;;;;;;5107193;28;20406;-54
2023/09/23 05:15:29;;;;;;;0.10;0.10;;;;;;;;;;5134843;27;20055;-54
2023/09/23 05:17:54;;;;;;;0.10;0.10;;;;;;;;;;5134725;27;20048;-54
2023/09/23 05:20:22;;;;;;;0.10;0.10;;;;;;;;;;5127834;28;20278;-54
2023/09/23 05:22:48;;;;;;;0.15;0.15;;;;;;;;;;5126361;28;20452;-54
2023/09/23 05:25:14;;;;;;;0.10;0.10;;;;;;;;;;5126695;28;20499;-54
2023/09/23 05:27:40;;;;;;;0.10;0.10;;;;;;;;;;5127614;28;20064;-54
2023/09/23 05:30:07;;;;;;;0.10;0.10;;;;;;;;;;5126479;28;20051;-54
2023/09/23 05:32:33;;;;;;;0.10;0.10;;;;;;;;;;5126554;28;20066;-54
2023/09/23 05:35:01;;;;;;;0.10;0.10;;;;;;;;;;5127261;28;20043;-54
2023/09/23 05:37:26;;;;;;;0.10;0.10;;;;;;;;;;5127104;28;20058;-54
2023/09/23 05:39:53;;;;;;;0.10;0.10;;;;;;;;;;5106494;28;20076;-54
2023/09/23 05:42:23;;;;;;;0.10;0.10;;;;;;;;;;5106108;28;20659;-54
2023/09/23 05:44:48;;;;;;;0.10;0.10;;;;;;;;;;5114490;28;20067;-55
2023/09/23 05:47:14;;;;;;;0.28;0.20;;;;;;;;;;5126490;28;20050;-54
2023/09/23 05:49:40;;;;;;;0.10;0.10;;;;;;;;;;5107633;27;20056;-54
2023/09/23 05:52:06;;;;;;;0.10;0.10;;;;;;;;;;5105530;28;20444;-54
2023/09/23 05:54:32;;;;;;;0.10;0.10;;;;;;;;;;5119509;28;20063;-55
2023/09/23 05:56:57;;;;;;;0.10;0.10;;;;;;;;;;5127228;27;20083;-54
2023/09/23 05:59:23;;;;;;;0.13;0.13;;;;;;;;;;5127435;27;20146;-54
2023/09/23 06:01:48;;;;;;;0.13;0.13;;;;;;;;;;5126744;28;20051;-54
2023/09/23 06:04:14;;;;;;;0.10;0.10;;;;;;;;;;5126121;28;20050;-54
2023/09/23 06:06:40;;;;;;;0.10;0.10;;;;;;;;;;5126686;28;20043;-54
2023/09/23 06:09:06;;;;;;;0.10;0.10;;;;;;;;;;5111691;28;20058;-54
2023/09/23 06:11:33;;;;;;;0.10;0.10;;;;;;;;;;5105564;28;20051;-54
2023/09/23 06:13:58;;;;;;;0.10;0.10;;;;;;;;;;5113292;27;20078;-54
2023/09/23 06:16:24;;;;;;;0.10;0.10;;;;;;;;;;5126903;28;20421;-54
2023/09/23 06:18:50;;;;;;;0.10;0.10;;;;;;;;;;5126236;28;20054;-54
2023/09/23 06:21:15;;;;;;;0.10;0.10;;;;;;;;;;5126620;28;20062;-54
2023/09/23 06:23:41;;;;;;;0.20;0.20;;;;;;;;;;5125744;28;20083;-55
2023/09/23 06:26:08;;;;;;;0.10;0.10;;;;;;;;;;5126055;28;20526;-54
2023/09/23 06:28:34;;;;;;;0.10;0.10;;;;;;;;;;5116079;28;20056;-54
2023/09/23 06:30:59;;;;;;;0.20;0.20;;;;;;;;;;5105760;28;20546;-54
2023/09/23 06:33:25;;;;;;;0.10;0.10;;;;;;;;;;5106164;28;20048;-54
2023/09/23 06:35:51;;;;;;;0.10;0.10;;;;;;;;;;5121864;28;20088;-54
2023/09/23 06:38:16;;;;;;;0.38;0.10;;;;;;;;;;5118170;28;20058;-54
2023/09/23 06:40:42;;;;;;;0.10;0.10;;;;;;;;;;5105165;28;20515;-54
2023/09/23 06:43:08;;;;;;;0.10;0.10;;;;;;;;;;5105437;28;20131;-55
2023/09/23 06:45:33;;;;;;;0.13;0.13;;;;;;;;;;5117962;28;20422;-54
2023/09/23 06:47:59;;;;;;;0.10;0.10;;;;;;;;;;5124889;28;20138;-54
2023/09/23 06:50:25;;;;;;;0.10;0.10;;;;;;;;;;5125602;27;20055;-54
2023/09/23 06:52:50;;;;;;;0.10;0.10;;;;;;;;;;5128466;27;20059;-54
2023/09/23 06:55:16;;;;;;;0.10;0.10;;;;;;;;;;5129648;27;20051;-54
2023/09/23 06:57:42;;;;;;;0.10;0.10;;;;;;;;;;5126215;28;20075;-54
2023/09/23 07:00:08;;;;;;;0.10;0.10;;;;;;;;;;5108935;28;20048;-54
2023/09/23 07:02:34;;;;;;;0.10;0.10;;;;;;;;;;5108278;28;20568;-54
2023/09/23 07:05:00;;;;;;;0.10;0.10;;;;;;;;;;5116335;28;20072;-54
2023/09/23 07:07:26;;;;;;;0.10;0.10;;;;;;;;;;5129544;28;20096;-54
2023/09/23 07:09:52;;;;;;;0.10;0.10;;;;;;;;;;5129461;28;20047;-54
2023/09/23 07:12:17;;;;;;;0.10;0.10;;;;;;;;;;5128960;28;20047;-55
2023/09/23 07:14:43;;;;;;;0.10;0.10;;;;;;;;;;5130090;27;20047;-54
2023/09/23 07:17:08;;;;;;;0.10;0.10;;;;;;;;;;5129286;28;20051;-54
2023/09/23 07:19:34;;;;;;;0.10;0.10;;;;;;;;;;5129176;28;20067;-54
2023/09/23 07:22:00;;;;;;;0.10;0.10;;;;;;;;;;5128709;28;20135;-54
2023/09/23 07:24:26;;;;;;;0.10;0.10;;;;;;;;;;5128411;28;20043;-54
2023/09/23 07:26:54;;;;;;;0.10;0.10;;;;;;;;;;5129139;28;20039;-55
2023/09/23 07:29:19;;;;;;;0.10;0.10;;;;;;;;;;5128036;28;20076;-54
2023/09/23 07:31:45;;;;;;;0.10;0.10;;;;;;;;;;5128705;28;20054;-54
2023/09/23 07:34:11;;;;;;;0.10;0.10;;;;;;;;;;5129342;28;20050;-54
2023/09/23 07:36:36;;;;;;;0.10;0.10;;;;;;;;;;5128494;28;20483;-54
2023/09/23 07:39:03;;;;;;;0.10;0.10;;;;;;;;;;5114874;28;20048;-54
2023/09/23 07:41:28;;;;;;;0.10;0.10;;;;;;;;;;5107876;28;20104;-54
2023/09/23 07:43:57;;;;;;;0.10;0.10;;;;;;;;;;5108034;28;20172;-54
2023/09/23 07:46:22;;;;;;;0.10;0.10;;;;;;;;;;5125243;28;20047;-54
2023/09/23 07:48:48;;;;;;;0.10;0.10;;;;;;;;;;5128309;28;20055;-54
2023/09/23 07:51:13;;;;;;;0.10;0.10;;;;;;;;;;5126929;28;20055;-54
2023/09/23 07:53:39;;;;;;;0.10;0.10;;;;;;;;;;5127660;28;20124;-54
2023/09/23 07:56:05;;;;;;;0.10;0.10;;;;;;;;;;5128915;28;20047;-54
2023/09/23 07:58:31;;;;;;;0.10;0.10;;;;;;;;;;5127493;28;20051;-54
2023/09/23 08:00:56;;;;;;;0.10;0.10;;;;;;;;;;5128590;27;20053;-54
2023/09/23 08:03:26;;;;;;;0.10;0.10;;;;;;;;;;5127720;27;20411;-54
2023/09/23 08:05:52;;;;;;;0.10;0.10;;;;;;;;;;5127348;27;20087;-53
2023/09/23 08:08:18;;;;;;;0.10;0.10;;;;;;;;;;5118819;28;20056;-53
2023/09/23 08:10:44;;;;;;;0.10;0.10;;;;;;;;;;5107083;28;20416;-54
2023/09/23 08:13:09;;;;;;;0.10;0.10;;;;;;;;;;5111300;27;20450;-54
2023/09/23 08:15:35;;;;;;;0.10;0.10;;;;;;;;;;5117913;28;20418;-54
2023/09/23 08:18:00;;;;;;;0.10;0.10;;;;;;;;;;5127778;28;20061;-54
2023/09/23 08:20:26;;;;;;;0.10;0.10;;;;;;;;;;5128563;28;20122;-54
2023/09/23 08:22:53;;;;;;;0.10;0.10;;;;;;;;;;5127790;28;20498;-54
2023/09/23 08:25:21;;;;;;;0.10;0.10;;;;;;;;;;5128227;28;20047;-54
2023/09/23 08:27:46;;;;;;;0.10;0.10;;;;;;;;;;5128036;28;20049;-54
2023/09/23 08:30:12;;;;;;;0.10;0.10;;;;;;;;;;5127750;28;20526;-54
2023/09/23 08:32:38;;;;;;;0.10;0.10;;;;;;;;;;5127910;28;20154;-54
2023/09/23 08:35:05;;;;;;;0.10;0.10;;;;;;;;;;5128808;28;20484;-53
2023/09/23 08:37:31;;;;;;;0.10;0.10;;;;;;;;;;5128214;28;20073;-53
2023/09/23 08:39:56;;;;;;;0.10;0.10;;;;;;;;;;5128469;28;20829;-54
2023/09/23 08:42:24;;;;;;;0.10;0.10;;;;;;;;;;5128035;28;20563;-54
2023/09/23 08:44:50;;;;;;;0.10;0.10;;;;;;;;;;5127646;28;20381;-54
2023/09/23 08:47:19;;;;;;;0.10;0.10;;;;;;;;;;5128151;27;20045;-54
2023/09/23 08:49:46;;;;;;;0.10;0.10;;;;;;;;;;5128369;28;20061;-54
2023/09/23 08:52:12;;;;;;;0.10;0.10;;;;;;;;;;5126910;28;20485;-54
2023/09/23 08:54:37;;;;;;;0.10;0.10;;;;;;;;;;5128149;28;20495;-54
2023/09/23 08:57:03;;;;;;;0.10;0.10;;;;;;;;;;5128652;28;20047;-54
2023/09/23 08:59:28;;;;;;;0.10;0.10;;;;;;;;;;5120044;28;20043;-54
2023/09/23 09:01:55;;;;;;;0.10;0.10;;;;;;;;;;5127913;28;20055;-54
2023/09/23 09:04:20;;;;;;;0.10;0.10;;;;;;;;;;5127855;28;20130;-53
2023/09/23 09:06:47;;;;;;;0.10;0.10;;;;;;;;;;5127568;28;20124;-53
2023/09/23 09:09:12;;;;;;;0.10;0.10;;;;;;;;;;5127906;28;20039;-54
2023/09/23 09:11:38;;;;;;;0.10;0.10;;;;;;;;;;5127544;28;20093;-54
2023/09/23 09:14:04;;;;;;;0.10;0.10;;;;;;;;;;5147247;27;20046;-54
2023/09/23 09:16:30;;;;;;;0.10;0.10;;;;;;;;;;5132895;27;20051;-54
2023/09/23 09:18:55;;;;;;;0.10;0.10;;;;;;;;;;5127986;28;20382;-54
2023/09/23 09:21:21;;;;;;;0.10;0.10;;;;;;;;;;5128581;28;20079;-54
2023/09/23 09:23:46;;;;;;;0.10;0.10;;;;;;;;;;5127631;28;20160;-54
2023/09/23 09:26:12;;;;;;;0.10;0.10;;;;;;;;;;5127425;28;20526;-54
2023/09/23 09:28:38;;;;;;;0.10;0.10;;;;;;;;;;5127651;28;20103;-54
2023/09/23 09:31:06;;;;;;;0.10;0.10;;;;;;;;;;5127191;28;20046;-54
2023/09/23 09:33:35;;;;;;;;;;;;;;;;;;5127894;28;20051;-53
2023/09/23 09:36:02;;;;;;;0.10;0.10;;;;;;;;;;5128017;28;19967;-53
2023/09/23 09:38:31;;;;;;;0.10;0.10;;;;;;;;;;5127007;28;20047;-53
2023/09/23 09:41:02;;;;;;;0.10;0.10;;;;;;;;;;5127420;28;20051;-54
2023/09/23 09:43:28;;;;;;;0.10;0.10;;;;;;;;;;5127959;28;20043;-54
2023/09/23 09:45:54;;;;;;;0.10;0.10;;;;;;;;;;5127602;28;20047;-54
2023/09/23 09:48:20;;;;;;;0.10;0.10;;;;;;;;;;5123417;28;20054;-54
2023/09/23 09:50:46;;;;;;;0.10;0.10;;;;;;;;;;5127492;28;20043;-54
2023/09/23 09:53:12;;;;;;;0.10;0.10;;;;;;;;;;5126167;28;20059;-54
2023/09/23 09:55:38;;;;;;;0.10;0.10;;;;;;;;;;5127016;27;20456;-54
2023/09/23 09:58:04;;;;;;;0.10;0.10;;;;;;;;;;5124739;28;20055;-54
2023/09/23 10:00:37;;;;;;;0.10;0.10;;;;;;;;;;5127032;27;20120;-53
2023/09/23 10:03:08;;;;;;;0.10;0.10;;;;;;;;;;5127076;28;20147;-54
2023/09/23 10:05:46;;;;;;;0.10;0.10;;;;;;;;;;5107795;28;20550;-54
2023/09/23 10:08:15;;;;;;;0.10;0.10;;;;;;;;;;5126973;28;20047;-54
2023/09/23 10:10:47;;;;;;;0.10;0.10;;;;;;;;;;5126424;28;20043;-54
2023/09/23 10:13:18;;;;;;;0.10;0.10;;;;;;;;;;5136280;27;20082;-54
2023/09/23 10:15:44;;;;;;;0.10;0.10;;;;;;;;;;5126325;28;20043;-54
2023/09/23 10:18:10;;;;;;;0.10;0.10;;;;;;;;;;5119399;28;20142;-54
2023/09/23 10:20:39;;;;;;;0.10;0.10;;;;;;;;;;5106278;28;20442;-54
2023/09/23 10:23:06;;;;;;;0.10;0.10;;;;;;;;;;5105419;28;20108;-54
2023/09/23 10:25:39;;;;;;;0.10;0.10;;;;;;;;;;5110563;27;20058;-54
2023/09/23 10:28:05;;;;;;;0.10;0.10;;;;;;;;;;5119283;28;20052;-54
2023/09/23 10:30:33;;;;;;;0.10;0.10;;;;;;;;;;5105017;28;20070;-54
2023/09/23 10:32:58;;;;;;;0.10;0.10;;;;;;;;;;5105775;28;20050;-54
2023/09/23 10:35:26;;;;;;;0.13;0.13;;;;;;;;;;5109337;28;20367;-54
2023/09/23 10:37:52;;;;;;;0.10;0.10;;;;;;;;;;5101644;28;20055;-54
2023/09/23 10:40:19;;;;;;;0.10;0.10;;;;;;;;;;5085218;28;20612;-54
2023/09/23 10:42:46;;;;;;;0.10;0.10;;;;;;;;;;5084340;28;20260;-54
2023/09/23 10:45:13;;;;;;;0.10;0.10;;;;;;;;;;5086963;28;20066;-54
2023/09/23 10:47:39;;;;;;;0.10;0.10;;;;;;;;;;5107077;28;20043;-54
2023/09/23 10:50:05;;;;;;;0.10;0.10;;;;;;;;;;5085133;28;20056;-53
2023/09/23 10:52:31;;;;;;;0.10;0.10;;;;;;;;;;5084220;28;20044;-54
2023/09/23 10:54:58;;;;;;;0.10;0.10;;;;;;;;;;5085633;28;20154;-54
2023/09/23 10:57:24;;;;;;;0.10;0.10;;;;;;;;;;5106029;28;20079;-54
2023/09/23 10:59:50;;;;;;;0.10;0.10;;;;;;;;;;5085181;28;20097;-54
2023/09/23 11:02:15;;;;;;;0.10;0.10;;;;;;;;;;5085721;28;20056;-54
2023/09/23 11:04:45;;;;;;;0.10;0.10;;;;;;;;;;5085779;28;20446;-55
2023/09/23 11:07:10;;;;;;;0.10;0.10;;;;;;;;;;5102757;28;20096;-54
2023/09/23 11:09:36;;;;;;;0.10;0.10;;;;;;;;;;5105341;28;20048;-54
2023/09/23 11:12:16;;;;;;;0.10;0.10;;;;;;;;;;5105017;28;20213;-54
2023/09/23 11:14:43;;;;;;;0.10;0.10;;;;;;;;;;5106114;28;20044;-54
2023/09/23 11:17:18;;;;;;;0.10;0.10;;;;;;;;;;5105851;28;20695;-53
2023/09/23 11:19:51;;;;;;;0.10;0.10;;;;;;;;;;5104438;28;20051;-54
2023/09/23 11:22:22;;;;;;;0.10;0.10;;;;;;;;;;5105303;28;20040;-54
2023/09/23 11:24:48;;;;;;;0.10;0.10;;;;;;;;;;5105428;28;20551;-54
2023/09/23 11:27:13;;;;;;;0.10;0.10;;;;;;;;;;5105596;28;20124;-53
2023/09/23 11:29:39;;;;;;;0.10;0.10;;;;;;;;;;5104488;28;20473;-54
2023/09/23 11:32:05;;;;;;;0.10;0.10;;;;;;;;;;5104673;28;20148;-54
2023/09/23 11:34:31;;;;;;;0.10;0.10;;;;;;;;;;5105116;28;20467;-54
2023/09/23 11:36:57;;;;;;;0.10;0.10;;;;;;;;;;5105309;28;20047;-54
2023/09/23 11:39:23;;;;;;;0.10;0.10;;;;;;;;;;5107892;28;20408;-54
2023/09/23 11:41:50;;;;;;;0.10;0.10;;;;;;;;;;5108801;28;20165;-53
2023/09/23 11:44:15;;;;;;;0.38;0.38;;;;;;;;;;5109163;28;20532;-53
2023/09/23 11:46:41;;;;;;;0.10;0.10;;;;;;;;;;5116735;28;20047;-53
2023/09/23 11:49:07;;;;;;;0.10;0.10;;;;;;;;;;5109398;28;20051;-53
2023/09/23 11:51:32;;;;;;;0.10;0.10;;;;;;;;;;5107864;28;20060;-54
2023/09/23 11:53:58;;;;;;;0.10;0.10;;;;;;;;;;5107255;28;20047;-54
2023/09/23 11:56:23;;;;;;;0.10;0.10;;;;;;;;;;5108328;28;20043;-53
2023/09/23 11:58:50;;;;;;;0.10;0.10;;;;;;;;;;5108080;28;20047;-54
2023/09/23 12:01:32;;;;;;;0.10;0.10;;;;;;;;;;5109029;28;20055;-54
2023/09/23 12:03:58;;;;;;;0.10;0.10;;;;;;;;;;5109556;28;20129;-54
2023/09/23 12:06:24;;;;;;;0.10;0.10;;;;;;;;;;5109127;28;20048;-54
2023/09/23 12:08:50;;;;;;;0.10;0.10;;;;;;;;;;5107547;28;20047;-53
2023/09/23 12:11:16;;;;;;;0.10;0.10;;;;;;;;;;5108854;28;20078;-53
2023/09/23 12:13:41;;;;;;;0.10;0.10;;;;;;;;;;5108875;28;20138;-53
2023/09/23 12:16:07;;;;;;;0.10;0.10;;;;;;;;;;5109227;28;20052;-53
2023/09/23 12:18:33;;;;;;;0.10;0.10;;;;;;;;;;5108144;28;20448;-54
2023/09/23 12:20:58;;;;;;;0.10;0.10;;;;;;;;;;5107451;28;20047;-54
2023/09/23 12:23:25;;;;;;;0.10;0.10;;;;;;;;;;5108146;28;20047;-54
2023/09/23 12:25:52;;;;;;;0.10;0.10;;;;;;;;;;5108318;28;20044;-54
2023/09/23 12:28:17;;;;;;;0.10;0.10;;;;;;;;;;5100140;28;20047;-54
2023/09/23 12:30:43;;;;;;;0.10;0.10;;;;;;;;;;5087855;28;20056;-54
2023/09/23 12:33:08;;;;;;;0.10;0.10;;;;;;;;;;5088434;28;20048;-54
2023/09/23 12:35:38;;;;;;;0.10;0.10;;;;;;;;;;5090145;28;20044;-54
2023/09/23 12:38:04;;;;;;;0.10;0.10;;;;;;;;;;5103087;28;20083;-53
2023/09/23 12:40:31;;;;;;;0.10;0.10;;;;;;;;;;5087054;28;20048;-53
2023/09/23 12:42:57;;;;;;;0.10;0.10;;;;;;;;;;5088240;28;20048;-53
2023/09/23 12:45:22;;;;;;;0.10;0.10;;;;;;;;;;5095631;28;20273;-53
2023/09/23 12:47:48;;;;;;;0.10;0.10;;;;;;;;;;5107274;28;20051;-53
2023/09/23 12:50:23;;;;;;;0.10;0.10;;;;;;;;;;5107601;28;20036;-53
2023/09/23 12:52:48;;;;;;;0.10;0.10;;;;;;;;;;5106733;28;20356;-54
2023/09/23 12:55:14;;;;;;;0.10;0.10;;;;;;;;;;5107643;28;20468;-54
2023/09/23 12:57:40;;;;;;;0.10;0.10;;;;;;;;;;5107675;28;20456;-54
2023/09/23 13:00:06;;;;;;;0.10;0.10;;;;;;;;;;5106631;28;20051;-54
2023/09/23 13:02:32;;;;;;;0.10;0.10;;;;;;;;;;5107914;28;20051;-54
2023/09/23 13:04:58;;;;;;;0.20;0.20;;;;;;;;;;5107649;28;20055;-54
2023/09/23 13:07:24;;;;;;;0.10;0.10;;;;;;;;;;5106800;28;20108;-53
2023/09/23 13:09:50;;;;;;;0.10;0.10;;;;;;;;;;5107236;28;20047;-53
2023/09/23 13:12:15;;;;;;;0.10;0.10;;;;;;;;;;5106849;28;20047;-54
2023/09/23 13:14:41;;;;;;;0.10;0.10;;;;;;;;;;5106833;28;20445;-54
2023/09/23 13:17:06;;;;;;;0.10;0.10;;;;;;;;;;5107366;28;20395;-54
2023/09/23 13:19:33;;;;;;;0.10;0.10;;;;;;;;;;5106507;28;20483;-54
2023/09/23 13:21:59;;;;;;;0.10;0.10;;;;;;;;;;5106566;28;20048;-54
2023/09/23 13:24:25;;;;;;;0.10;0.10;;;;;;;;;;5106553;28;20488;-54
2023/09/23 13:26:50;;;;;;;0.10;0.10;;;;;;;;;;5106818;28;20050;-54
2023/09/23 13:29:17;;;;;;;0.10;0.10;;;;;;;;;;5105134;28;20051;-54
2023/09/23 13:31:43;;;;;;;0.10;0.10;;;;;;;;;;5106108;28;20179;-54
2023/09/23 13:34:09;;;;;;;0.10;0.10;;;;;;;;;;5106922;28;20498;-54
2023/09/23 13:36:35;;;;;;;0.10;0.10;;;;;;;;;;5106844;28;20066;-53
2023/09/23 13:39:01;;;;;;;0.10;0.10;;;;;;;;;;5106477;28;20051;-53
2023/09/23 13:41:27;;;;;;;0.10;0.10;;;;;;;;;;5106442;28;20054;-54
2023/09/23 13:43:53;;;;;;;0.10;0.10;;;;;;;;;;5106882;28;20047;-54
2023/09/23 13:46:18;;;;;;;0.10;0.10;;;;;;;;;;5117460;28;20096;-53
2023/09/23 13:48:44;;;;;;;0.20;0.20;;;;;;;;;;5105907;28;20055;-54
2023/09/23 13:51:10;;;;;;;0.10;0.10;;;;;;;;;;5106392;28;20040;-54
2023/09/23 13:53:35;;;;;;;0.10;0.10;;;;;;;;;;5105822;28;20106;-54
2023/09/23 13:56:01;;;;;;;0.10;0.10;;;;;;;;;;5106311;28;20480;-54
2023/09/23 13:58:26;;;;;;;0.10;0.10;;;;;;;;;;5097393;28;20048;-54
2023/09/23 14:00:52;;;;;;;0.10;0.10;;;;;;;;;;5085091;28;20051;-54
2023/09/23 14:03:19;;;;;;;0.10;0.10;;;;;;;;;;5086620;28;20489;-54
2023/09/23 14:05:45;;;;;;;0.10;0.10;;;;;;;;;;5086403;28;20051;-54
2023/09/23 14:08:10;;;;;;;0.10;0.10;;;;;;;;;;5106185;28;20074;-53
2023/09/23 14:10:36;;;;;;;0.10;0.10;;;;;;;;;;5106704;28;20055;-53
2023/09/23 14:13:03;;;;;;;0.10;0.10;;;;;;;;;;5107226;28;20052;-54
2023/09/23 14:15:30;;;;;;;0.10;0.10;;;;;;;;;;5107021;28;20059;-54
2023/09/23 14:17:56;;;;;;;0.10;0.10;;;;;;;;;;5102871;28;20079;-53
2023/09/23 14:20:22;;;;;;;0.10;0.10;;;;;;;;;;5086741;28;20097;-53
2023/09/23 14:22:48;;;;;;;0.10;0.10;;;;;;;;;;5106339;28;20104;-54
2023/09/23 14:25:14;;;;;;;0.10;0.10;;;;;;;;;;5106881;28;20073;-54
2023/09/23 14:27:39;;;;;;;0.10;0.10;;;;;;;;;;5103789;28;20046;-54
2023/09/23 14:30:07;;;;;;;0.10;0.10;;;;;;;;;;5085921;28;20730;-54
2023/09/23 14:32:33;;;;;;;0.10;0.10;;;;;;;;;;5086284;28;20146;-54
2023/09/23 14:34:59;;;;;;;0.10;0.10;;;;;;;;;;5086178;28;20048;-54
2023/09/23 14:37:24;;;;;;;0.10;0.10;;;;;;;;;;5099214;28;20429;-53
2023/09/23 14:39:50;;;;;;;0.10;0.10;;;;;;;;;;5086733;28;20489;-54